Time,TemperatureF,DewpointF,PressureIn,WindDirection,WindDirectionDegrees,WindSpeedMPH,WindSpeedGustMPH,Humidity,HourlyPrecipIn,Conditions,Clouds,dailyrainin,SoftwareType,DateUTC
2013-02-01 00:12:00,49.5,30.0,30.19,NNE,32,8.0,-999.0,47,-99.99,,,0.00,weatherlink.com 1.10,2013-02-01 05:12:00,
2013-02-01 00:27:00,48.9,30.0,30.19,NE,43,7.0,-999.0,48,-99.99,,,0.00,weatherlink.com 1.10,2013-02-01 05:27:00,
2013-02-01 00:42:00,48.5,30.0,30.19,ESE,107,8.0,-999.0,50,-99.99,,,0.00,weatherlink.com 1.10,2013-02-01 05:42:00,
2013-02-01 00:57:00,48.3,30.0,30.19,NE,47,7.0,-999.0,50,-99.99,,,0.00,weatherlink.com 1.10,2013-02-01 05:57:00,
2013-02-01 01:12:00,48.2,30.0,30.19,NE,51,2.0,-999.0,50,-99.99,,,0.00,weatherlink.com 1.10,2013-02-01 06:12:00,
2013-02-01 01:27:00,47.8,30.0,30.19,East,82,11.0,-999.0,51,-99.99,,,0.00,weatherlink.com 1.10,2013-02-01 06:27:00,
2013-02-01 01:42:00,47.4,31.0,30.19,NE,34,8.0,-999.0,53,-99.99,,,0.00,weatherlink.com 1.10,2013-02-01 06:42:00,
2013-02-01 01:57:00,47.0,32.0,30.18,NE,44,8.0,-999.0,56,-99.99,,,0.00,weatherlink.com 1.10,2013-02-01 06:57:00,
2013-02-01 02:12:00,46.5,32.0,30.19,NE,51,5.0,-999.0,57,-99.99,,,0.00,weatherlink.com 1.10,2013-02-01 07:12:00,
2013-02-01 02:27:00,46.2,32.0,30.19,NNE,30,6.0,-999.0,58,-99.99,,,0.00,weatherlink.com 1.10,2013-02-01 07:27:00,
2013-02-01 02:42:00,46.0,32.0,30.19,NE,35,7.0,-999.0,58,-99.99,,,0.00,weatherlink.com 1.10,2013-02-01 07:42:00,
2013-02-01 02:57:00,45.6,31.0,30.18,NE,34,4.0,-999.0,58,-99.99,,,0.00,weatherlink.com 1.10,2013-02-01 07:57:00,
2013-02-01 03:12:00,45.3,32.0,30.20,NE,36,7.0,-999.0,59,-99.99,,,0.00,weatherlink.com 1.10,2013-02-01 08:12:00,
2013-02-01 03:27:00,45.0,32.0,30.19,ENE,61,11.0,-999.0,60,-99.99,,,0.00,weatherlink.com 1.10,2013-02-01 08:27:00,
2013-02-01 03:42:00,44.7,32.0,30.20,ENE,59,5.0,-999.0,61,-99.99,,,0.00,weatherlink.com 1.10,2013-02-01 08:42:00,
2013-02-01 03:57:00,44.3,32.0,30.20,ENE,62,11.0,-999.0,62,-99.99,,,0.00,weatherlink.com 1.10,2013-02-01 08:57:00,
2013-02-01 04:12:00,44.1,32.0,30.21,ENE,61,10.0,-999.0,63,-99.99,,,0.00,weatherlink.com 1.10,2013-02-01 09:12:00,
2013-02-01 04:27:00,44.1,32.0,30.21,ENE,75,10.0,-999.0,62,-99.99,,,0.00,weatherlink.com 1.10,2013-02-01 09:27:00,
2013-02-01 04:42:00,44.0,32.0,30.21,NE,51,6.0,-999.0,63,-99.99,,,0.00,weatherlink.com 1.10,2013-02-01 09:42:00,
2013-02-01 04:57:00,43.9,32.0,30.21,NE,42,7.0,-999.0,63,-99.99,,,0.00,weatherlink.com 1.10,2013-02-01 09:57:00,
2013-02-01 05:13:00,-999.0,-99.9,30.21,North,-999,-999.0,-999.0,-999,-99.99,,,0.00,weatherlink.com 1.10,2013-02-01 10:13:00,
2013-02-01 05:28:00,-999.0,-99.9,30.21,North,-999,-999.0,-999.0,-999,-99.99,,,0.00,weatherlink.com 1.10,2013-02-01 10:28:00,
2013-02-01 05:43:00,-999.0,-99.9,30.22,North,-999,-999.0,-999.0,-999,-99.99,,,0.00,weatherlink.com 1.10,2013-02-01 10:43:00,
2013-02-01 05:58:00,-999.0,-99.9,30.23,North,-999,-999.0,-999.0,-999,-99.99,,,0.00,weatherlink.com 1.10,2013-02-01 10:58:00,
2013-02-01 06:13:00,-999.0,-99.9,30.23,North,-999,-999.0,-999.0,-999,-99.99,,,0.00,weatherlink.com 1.10,2013-02-01 11:13:00,
2013-02-01 06:28:00,-999.0,-99.9,30.23,North,-999,-999.0,-999.0,-999,-99.99,,,0.00,weatherlink.com 1.10,2013-02-01 11:28:00,
2013-02-01 06:43:00,-999.0,-99.9,30.24,North,-999,-999.0,-999.0,-999,-99.99,,,0.00,weatherlink.com 1.10,2013-02-01 11:43:00,
2013-02-01 06:58:00,-999.0,-99.9,30.25,North,-999,-999.0,-999.0,-999,-99.99,,,0.00,weatherlink.com 1.10,2013-02-01 11:58:00,
2013-02-01 07:13:00,-999.0,-99.9,30.26,North,-999,-999.0,-999.0,-999,-99.99,,,0.00,weatherlink.com 1.10,2013-02-01 12:13:00,
2013-02-01 07:28:00,-999.0,-99.9,30.26,North,-999,-999.0,-999.0,-999,-99.99,,,0.00,weatherlink.com 1.10,2013-02-01 12:28:00,
2013-02-01 07:46:00,-999.0,-99.9,30.27,North,-999,-999.0,-999.0,-999,-99.99,,,0.00,weatherlink.com 1.10,2013-02-01 12:46:00,
2013-02-01 08:03:00,-999.0,-99.9,30.28,North,-999,-999.0,-999.0,-999,-99.99,,,0.00,weatherlink.com 1.10,2013-02-01 13:03:00,
2013-02-01 08:20:00,-999.0,-99.9,30.28,North,-999,-999.0,-999.0,-999,-99.99,,,0.00,weatherlink.com 1.10,2013-02-01 13:20:00,
2013-02-01 08:37:00,-999.0,-99.9,30.29,North,-999,-999.0,-999.0,-999,-99.99,,,0.00,weatherlink.com 1.10,2013-02-01 13:37:00,
2013-02-01 08:54:00,-999.0,-99.9,30.30,North,-999,-999.0,-999.0,-999,-99.99,,,0.00,weatherlink.com 1.10,2013-02-01 13:54:00,
2013-02-01 09:10:00,-999.0,-99.9,30.30,North,-999,-999.0,-999.0,-999,-99.99,,,0.00,weatherlink.com 1.10,2013-02-01 14:10:00,
2013-02-01 09:27:00,49.9,31.0,30.30,NE,49,12.0,-999.0,49,-99.99,,,0.00,weatherlink.com 1.10,2013-02-01 14:27:00,
2013-02-01 09:43:00,51.2,31.0,30.31,NE,49,14.0,-999.0,46,-99.99,,,0.00,weatherlink.com 1.10,2013-02-01 14:43:00,
2013-02-01 10:00:00,52.2,31.0,30.30,ENE,69,5.0,-999.0,45,-99.99,,,0.00,weatherlink.com 1.10,2013-02-01 15:00:00,
2013-02-01 10:17:00,52.7,30.0,30.31,ENE,67,12.0,-999.0,42,-99.99,,,0.00,weatherlink.com 1.10,2013-02-01 15:17:00,
2013-02-01 10:33:00,54.1,31.0,30.31,ENE,60,5.0,-999.0,41,-99.99,,,0.00,weatherlink.com 1.10,2013-02-01 15:33:00,
2013-02-01 10:49:00,55.7,32.0,30.31,NE,49,6.0,-999.0,40,-99.99,,,0.00,weatherlink.com 1.10,2013-02-01 15:49:00,
2013-02-01 11:05:00,56.4,30.0,30.30,ENE,71,6.0,-999.0,37,-99.99,,,0.00,weatherlink.com 1.10,2013-02-01 16:05:00,
2013-02-01 11:23:00,57.4,30.0,30.30,ENE,59,8.0,-999.0,35,-99.99,,,0.00,weatherlink.com 1.10,2013-02-01 16:23:00,
2013-02-01 11:39:00,58.2,30.0,30.30,NE,40,9.0,-999.0,34,-99.99,,,0.00,weatherlink.com 1.10,2013-02-01 16:39:00,
2013-02-01 11:55:00,59.6,32.0,30.29,East,80,10.0,-999.0,36,-99.99,,,0.00,weatherlink.com 1.10,2013-02-01 16:55:00,
2013-02-01 12:12:00,60.4,29.0,30.28,East,85,6.0,-999.0,30,-99.99,,,0.00,weatherlink.com 1.10,2013-02-01 17:12:00,
2013-02-01 12:28:00,60.9,30.0,30.27,ENE,76,3.0,-999.0,31,-99.99,,,0.00,weatherlink.com 1.10,2013-02-01 17:28:00,
2013-02-01 12:45:00,61.9,28.0,30.26,East,87,3.0,-999.0,28,-99.99,,,0.00,weatherlink.com 1.10,2013-02-01 17:45:00,
2013-02-01 13:01:00,62.6,28.0,30.26,ENE,74,6.0,-999.0,27,-99.99,,,0.00,weatherlink.com 1.10,2013-02-01 18:01:00,
2013-02-01 13:17:00,64.1,26.0,30.25,WNW,287,4.0,-999.0,24,-99.99,,,0.00,weatherlink.com 1.10,2013-02-01 18:17:00,
2013-02-01 13:35:00,64.1,27.0,30.24,NE,56,6.0,-999.0,25,-99.99,,,0.00,weatherlink.com 1.10,2013-02-01 18:35:00,
2013-02-01 13:51:00,64.6,26.0,30.24,NE,40,4.0,-999.0,23,-99.99,,,0.00,weatherlink.com 1.10,2013-02-01 18:51:00,
2013-02-01 14:07:00,64.8,27.0,30.23,ENE,74,4.0,-999.0,24,-99.99,,,0.00,weatherlink.com 1.10,2013-02-01 19:07:00,
2013-02-01 14:23:00,65.9,25.0,30.22,ENE,65,10.0,-999.0,21,-99.99,,,0.00,weatherlink.com 1.10,2013-02-01 19:23:00,
2013-02-01 14:39:00,66.1,26.0,30.22,East,91,0.0,-999.0,22,-99.99,,,0.00,weatherlink.com 1.10,2013-02-01 19:39:00,
2013-02-01 14:57:00,66.6,24.0,30.21,NE,44,0.0,-999.0,20,-99.99,,,0.00,weatherlink.com 1.10,2013-02-01 19:57:00,
2013-02-01 15:13:00,66.8,25.0,30.21,NNW,346,3.0,-999.0,21,-99.99,,,0.00,weatherlink.com 1.10,2013-02-01 20:13:00,
2013-02-01 15:29:00,67.9,25.0,30.20,WSW,242,1.0,-999.0,20,-99.99,,,0.00,weatherlink.com 1.10,2013-02-01 20:29:00,
2013-02-01 15:45:00,67.3,25.0,30.20,NNW,333,1.0,-999.0,20,-99.99,,,0.00,weatherlink.com 1.10,2013-02-01 20:45:00,
2013-02-01 16:02:00,67.5,27.0,30.20,WNW,292,2.0,-999.0,22,-99.99,,,0.00,weatherlink.com 1.10,2013-02-01 21:02:00,
2013-02-01 16:18:00,67.6,27.0,30.20,NW,318,9.0,-999.0,22,-99.99,,,0.00,weatherlink.com 1.10,2013-02-01 21:18:00,
2013-02-01 16:35:00,67.2,27.0,30.20,NW,307,9.0,-999.0,22,-99.99,,,0.00,weatherlink.com 1.10,2013-02-01 21:35:00,
2013-02-01 16:52:00,66.5,27.0,30.21,NNW,333,7.0,-999.0,23,-99.99,,,0.00,weatherlink.com 1.10,2013-02-01 21:52:00,
2013-02-01 17:07:00,65.5,28.0,30.21,NNW,342,7.0,-999.0,24,-99.99,,,0.00,weatherlink.com 1.10,2013-02-01 22:07:00,
2013-02-01 17:22:00,65.0,27.0,30.20,NW,313,0.0,-999.0,24,-99.99,,,0.00,weatherlink.com 1.10,2013-02-01 22:22:00,
2013-02-01 17:37:00,64.7,28.0,30.20,NW,304,3.0,-999.0,25,-99.99,,,0.00,weatherlink.com 1.10,2013-02-01 22:37:00,
2013-02-01 17:52:00,64.4,29.0,30.20,NW,304,3.0,-999.0,26,-99.99,,,0.00,weatherlink.com 1.10,2013-02-01 22:52:00,
2013-02-01 18:07:00,64.1,30.0,30.21,WNW,298,0.0,-999.0,28,-99.99,,,0.00,weatherlink.com 1.10,2013-02-01 23:07:00,
2013-02-01 18:22:00,63.5,30.0,30.21,WNW,298,2.0,-999.0,28,-99.99,,,0.00,weatherlink.com 1.10,2013-02-01 23:22:00,
2013-02-01 18:37:00,63.0,30.0,30.21,WNW,298,1.0,-999.0,29,-99.99,,,0.00,weatherlink.com 1.10,2013-02-01 23:37:00,
2013-02-01 18:52:00,62.7,31.0,30.21,NW,305,1.0,-999.0,30,-99.99,,,0.00,weatherlink.com 1.10,2013-02-01 23:52:00,
2013-02-01 19:07:00,62.2,33.0,30.21,NW,305,0.0,-999.0,33,-99.99,,,0.00,weatherlink.com 1.10,2013-02-02 00:07:00,
2013-02-01 19:22:00,61.4,35.0,30.21,NW,305,1.0,-999.0,37,-99.99,,,0.00,weatherlink.com 1.10,2013-02-02 00:22:00,
2013-02-01 19:37:00,60.6,34.0,30.21,NW,305,0.0,-999.0,37,-99.99,,,0.00,weatherlink.com 1.10,2013-02-02 00:37:00,
2013-02-01 19:52:00,60.2,33.0,30.21,NW,305,0.0,-999.0,36,-99.99,,,0.00,weatherlink.com 1.10,2013-02-02 00:52:00,
2013-02-01 20:07:00,59.8,33.0,30.22,NW,305,0.0,-999.0,37,-99.99,,,0.00,weatherlink.com 1.10,2013-02-02 01:07:00,
2013-02-01 20:22:00,60.0,38.0,30.21,NE,48,0.0,-999.0,44,-99.99,,,0.00,weatherlink.com 1.10,2013-02-02 01:22:00,
2013-02-01 20:37:00,60.1,31.0,30.23,ENE,61,4.0,-999.0,33,-99.99,,,0.00,weatherlink.com 1.10,2013-02-02 01:37:00,
2013-02-01 20:52:00,61.0,32.0,30.22,NNE,25,3.0,-999.0,34,-99.99,,,0.00,weatherlink.com 1.10,2013-02-02 01:52:00,
2013-02-01 21:07:00,60.8,31.0,30.23,NE,43,1.0,-999.0,32,-99.99,,,0.00,weatherlink.com 1.10,2013-02-02 02:07:00,
2013-02-01 21:22:00,59.3,33.0,30.23,ENE,70,5.0,-999.0,38,-99.99,,,0.00,weatherlink.com 1.10,2013-02-02 02:22:00,
2013-02-01 21:37:00,57.1,36.0,30.24,North,360,4.0,-999.0,45,-99.99,,,0.00,weatherlink.com 1.10,2013-02-02 02:37:00,
2013-02-01 21:52:00,56.1,35.0,30.25,NE,53,3.0,-999.0,46,-99.99,,,0.00,weatherlink.com 1.10,2013-02-02 02:52:00,
2013-02-01 22:07:00,56.2,34.0,30.25,ENE,67,6.0,-999.0,44,-99.99,,,0.00,weatherlink.com 1.10,2013-02-02 03:07:00,
2013-02-01 22:22:00,56.0,34.0,30.25,North,9,6.0,-999.0,43,-99.99,,,0.00,weatherlink.com 1.10,2013-02-02 03:22:00,
2013-02-01 22:37:00,55.7,34.0,30.25,NE,38,4.0,-999.0,45,-99.99,,,0.00,weatherlink.com 1.10,2013-02-02 03:37:00,
2013-02-01 22:52:00,55.1,35.0,30.25,NNE,29,4.0,-999.0,47,-99.99,,,0.00,weatherlink.com 1.10,2013-02-02 03:52:00,
2013-02-01 23:07:00,54.4,35.0,30.25,ENE,59,4.0,-999.0,49,-99.99,,,0.00,weatherlink.com 1.10,2013-02-02 04:07:00,
2013-02-01 23:22:00,53.2,35.0,30.25,ENE,61,6.0,-999.0,51,-99.99,,,0.00,weatherlink.com 1.10,2013-02-02 04:22:00,
2013-02-01 23:37:00,52.5,35.0,30.25,ENE,57,5.0,-999.0,52,-99.99,,,0.00,weatherlink.com 1.10,2013-02-02 04:37:00,
2013-02-01 23:52:00,52.0,35.0,30.24,ENE,58,6.0,-999.0,53,-99.99,,,0.00,weatherlink.com 1.10,2013-02-02 04:52:00,